sensor_id;sensor_type;location;lat;lon;timestamp;P1;durP1;ratioP1;P2;durP2;ratioP2
51852;SDS011;37894;53.172;6.598;2023-04-15T00:01:20;10.45;;;5.50;;
51852;SDS011;37894;53.172;6.598;2023-04-15T00:03:47;9.85;;;5.00;;
51852;SDS011;37894;53.172;6.598;2023-04-15T00:06:14;14.25;;;5.40;;
51852;SDS011;37894;53.172;6.598;2023-04-15T00:08:40;11.77;;;5.75;;
51852;SDS011;37894;53.172;6.598;2023-04-15T00:11:06;12.10;;;5.50;;
51852;SDS011;37894;53.172;6.598;2023-04-15T00:13:32;12.85;;;5.35;;
51852;SDS011;37894;53.172;6.598;2023-04-15T00:15:59;12.40;;;6.07;;
51852;SDS011;37894;53.172;6.598;2023-04-15T00:18:25;12.25;;;6.72;;
51852;SDS011;37894;53.172;6.598;2023-04-15T00:20:51;12.15;;;6.05;;
51852;SDS011;37894;53.172;6.598;2023-04-15T00:23:17;11.02;;;6.32;;
51852;SDS011;37894;53.172;6.598;2023-04-15T00:25:43;14.18;;;7.22;;
51852;SDS011;37894;53.172;6.598;2023-04-15T00:28:09;13.35;;;7.30;;
51852;SDS011;37894;53.172;6.598;2023-04-15T00:30:35;16.13;;;7.22;;
51852;SDS011;37894;53.172;6.598;2023-04-15T00:33:01;16.80;;;6.93;;
51852;SDS011;37894;53.172;6.598;2023-04-15T00:35:27;14.45;;;7.80;;
51852;SDS011;37894;53.172;6.598;2023-04-15T00:37:53;12.38;;;6.72;;
51852;SDS011;37894;53.172;6.598;2023-04-15T00:40:20;14.82;;;8.02;;
51852;SDS011;37894;53.172;6.598;2023-04-15T00:42:46;20.38;;;8.40;;
51852;SDS011;37894;53.172;6.598;2023-04-15T00:45:12;16.58;;;8.45;;
51852;SDS011;37894;53.172;6.598;2023-04-15T00:47:38;11.70;;;7.57;;
51852;SDS011;37894;53.172;6.598;2023-04-15T00:50:06;17.67;;;8.43;;
51852;SDS011;37894;53.172;6.598;2023-04-15T00:52:32;15.52;;;8.20;;
51852;SDS011;37894;53.172;6.598;2023-04-15T00:54:59;14.77;;;7.88;;
51852;SDS011;37894;53.172;6.598;2023-04-15T00:57:25;15.10;;;8.30;;
51852;SDS011;37894;53.172;6.598;2023-04-15T00:59:52;15.07;;;8.32;;
51852;SDS011;37894;53.172;6.598;2023-04-15T01:02:19;14.63;;;8.40;;
51852;SDS011;37894;53.172;6.598;2023-04-15T01:04:45;18.83;;;8.57;;
51852;SDS011;37894;53.172;6.598;2023-04-15T01:07:11;14.43;;;8.70;;
51852;SDS011;37894;53.172;6.598;2023-04-15T01:09:37;15.48;;;8.50;;
51852;SDS011;37894;53.172;6.598;2023-04-15T01:12:03;13.65;;;8.48;;
51852;SDS011;37894;53.172;6.598;2023-04-15T01:14:31;15.35;;;8.30;;
51852;SDS011;37894;53.172;6.598;2023-04-15T01:16:58;15.25;;;7.57;;
51852;SDS011;37894;53.172;6.598;2023-04-15T01:19:24;14.93;;;8.65;;
51852;SDS011;37894;53.172;6.598;2023-04-15T01:21:50;14.77;;;8.45;;
51852;SDS011;37894;53.172;6.598;2023-04-15T01:24:16;12.63;;;7.75;;
51852;SDS011;37894;53.172;6.598;2023-04-15T01:26:43;14.48;;;7.78;;
51852;SDS011;37894;53.172;6.598;2023-04-15T01:29:10;14.57;;;8.55;;
51852;SDS011;37894;53.172;6.598;2023-04-15T01:31:37;14.07;;;8.32;;
51852;SDS011;37894;53.172;6.598;2023-04-15T01:34:03;13.77;;;8.70;;
51852;SDS011;37894;53.172;6.598;2023-04-15T01:36:29;13.63;;;7.60;;
51852;SDS011;37894;53.172;6.598;2023-04-15T01:38:55;13.15;;;7.88;;
51852;SDS011;37894;53.172;6.598;2023-04-15T01:41:26;14.68;;;8.23;;
51852;SDS011;37894;53.172;6.598;2023-04-15T01:43:52;18.52;;;8.38;;
51852;SDS011;37894;53.172;6.598;2023-04-15T01:46:19;14.02;;;8.18;;
51852;SDS011;37894;53.172;6.598;2023-04-15T01:48:45;13.48;;;8.50;;
51852;SDS011;37894;53.172;6.598;2023-04-15T01:51:11;15.43;;;9.07;;
51852;SDS011;37894;53.172;6.598;2023-04-15T01:53:37;13.38;;;7.93;;
51852;SDS011;37894;53.172;6.598;2023-04-15T01:56:03;13.63;;;8.35;;
51852;SDS011;37894;53.172;6.598;2023-04-15T01:58:29;13.82;;;8.18;;
51852;SDS011;37894;53.172;6.598;2023-04-15T02:00:55;17.58;;;9.18;;
51852;SDS011;37894;53.172;6.598;2023-04-15T02:03:21;15.23;;;9.13;;
51852;SDS011;37894;53.172;6.598;2023-04-15T02:05:47;17.48;;;10.18;;
51852;SDS011;37894;53.172;6.598;2023-04-15T02:08:13;14.90;;;10.32;;
51852;SDS011;37894;53.172;6.598;2023-04-15T02:10:39;17.58;;;10.65;;
51852;SDS011;37894;53.172;6.598;2023-04-15T02:13:05;15.23;;;10.15;;
51852;SDS011;37894;53.172;6.598;2023-04-15T02:15:30;14.93;;;9.45;;
51852;SDS011;37894;53.172;6.598;2023-04-15T02:17:57;16.38;;;9.30;;
51852;SDS011;37894;53.172;6.598;2023-04-15T02:20:24;18.27;;;10.27;;
51852;SDS011;37894;53.172;6.598;2023-04-15T02:22:50;16.50;;;9.80;;
51852;SDS011;37894;53.172;6.598;2023-04-15T02:25:16;18.73;;;10.25;;
51852;SDS011;37894;53.172;6.598;2023-04-15T02:27:42;16.52;;;9.80;;
51852;SDS011;37894;53.172;6.598;2023-04-15T02:30:09;16.27;;;9.73;;
51852;SDS011;37894;53.172;6.598;2023-04-15T02:32:35;13.98;;;9.25;;
51852;SDS011;37894;53.172;6.598;2023-04-15T02:35:05;18.48;;;9.30;;
51852;SDS011;37894;53.172;6.598;2023-04-15T02:37:34;14.23;;;9.65;;
51852;SDS011;37894;53.172;6.598;2023-04-15T02:40:08;15.75;;;8.63;;
51852;SDS011;37894;53.172;6.598;2023-04-15T02:42:40;17.05;;;9.15;;
51852;SDS011;37894;53.172;6.598;2023-04-15T02:45:08;16.52;;;9.10;;
51852;SDS011;37894;53.172;6.598;2023-04-15T02:47:34;12.70;;;8.43;;
51852;SDS011;37894;53.172;6.598;2023-04-15T02:50:01;18.05;;;9.70;;
51852;SDS011;37894;53.172;6.598;2023-04-15T02:52:27;16.38;;;8.05;;
51852;SDS011;37894;53.172;6.598;2023-04-15T02:54:53;16.67;;;9.93;;
51852;SDS011;37894;53.172;6.598;2023-04-15T02:57:24;23.02;;;10.65;;
51852;SDS011;37894;53.172;6.598;2023-04-15T02:59:52;18.35;;;11.07;;
51852;SDS011;37894;53.172;6.598;2023-04-15T03:02:18;18.85;;;10.60;;
51852;SDS011;37894;53.172;6.598;2023-04-15T03:04:43;19.73;;;10.93;;
51852;SDS011;37894;53.172;6.598;2023-04-15T03:07:09;19.58;;;11.93;;
51852;SDS011;37894;53.172;6.598;2023-04-15T03:09:35;18.85;;;12.02;;
51852;SDS011;37894;53.172;6.598;2023-04-15T03:12:01;19.52;;;11.93;;
51852;SDS011;37894;53.172;6.598;2023-04-15T03:14:27;21.67;;;11.18;;
51852;SDS011;37894;53.172;6.598;2023-04-15T03:16:52;16.98;;;10.30;;
51852;SDS011;37894;53.172;6.598;2023-04-15T03:19:18;22.65;;;12.05;;
51852;SDS011;37894;53.172;6.598;2023-04-15T03:21:47;19.58;;;11.77;;
51852;SDS011;37894;53.172;6.598;2023-04-15T03:24:12;18.77;;;11.43;;
51852;SDS011;37894;53.172;6.598;2023-04-15T03:26:38;21.30;;;12.27;;
51852;SDS011;37894;53.172;6.598;2023-04-15T03:29:04;20.92;;;11.95;;
51852;SDS011;37894;53.172;6.598;2023-04-15T03:31:31;19.75;;;12.27;;
51852;SDS011;37894;53.172;6.598;2023-04-15T03:33:56;21.90;;;13.07;;
51852;SDS011;37894;53.172;6.598;2023-04-15T03:36:22;23.05;;;12.40;;
51852;SDS011;37894;53.172;6.598;2023-04-15T03:38:48;23.58;;;11.73;;
51852;SDS011;37894;53.172;6.598;2023-04-15T03:41:14;19.33;;;11.65;;
51852;SDS011;37894;53.172;6.598;2023-04-15T03:43:40;23.63;;;13.40;;
51852;SDS011;37894;53.172;6.598;2023-04-15T03:46:05;22.98;;;12.85;;
51852;SDS011;37894;53.172;6.598;2023-04-15T03:48:31;21.80;;;13.18;;
51852;SDS011;37894;53.172;6.598;2023-04-15T03:50:57;22.20;;;11.85;;
51852;SDS011;37894;53.172;6.598;2023-04-15T03:53:23;19.67;;;12.30;;
51852;SDS011;37894;53.172;6.598;2023-04-15T03:55:49;25.02;;;13.93;;
51852;SDS011;37894;53.172;6.598;2023-04-15T03:58:14;26.83;;;13.40;;
51852;SDS011;37894;53.172;6.598;2023-04-15T04:00:40;26.67;;;14.07;;
51852;SDS011;37894;53.172;6.598;2023-04-15T04:03:07;25.00;;;13.52;;
51852;SDS011;37894;53.172;6.598;2023-04-15T04:05:33;23.13;;;13.88;;
51852;SDS011;37894;53.172;6.598;2023-04-15T04:08:01;23.83;;;14.20;;
51852;SDS011;37894;53.172;6.598;2023-04-15T04:10:26;24.15;;;14.57;;
51852;SDS011;37894;53.172;6.598;2023-04-15T04:12:52;26.95;;;14.38;;
51852;SDS011;37894;53.172;6.598;2023-04-15T04:15:18;26.52;;;15.85;;
51852;SDS011;37894;53.172;6.598;2023-04-15T04:17:44;31.73;;;18.77;;
51852;SDS011;37894;53.172;6.598;2023-04-15T04:20:10;31.50;;;21.02;;
51852;SDS011;37894;53.172;6.598;2023-04-15T04:22:39;36.88;;;21.98;;
51852;SDS011;37894;53.172;6.598;2023-04-15T04:25:05;31.15;;;20.02;;
51852;SDS011;37894;53.172;6.598;2023-04-15T04:27:32;37.60;;;22.88;;
51852;SDS011;37894;53.172;6.598;2023-04-15T04:29:59;43.00;;;23.70;;
51852;SDS011;37894;53.172;6.598;2023-04-15T04:32:25;39.50;;;23.95;;
51852;SDS011;37894;53.172;6.598;2023-04-15T04:34:52;41.90;;;24.48;;
51852;SDS011;37894;53.172;6.598;2023-04-15T04:37:18;40.10;;;23.05;;
51852;SDS011;37894;53.172;6.598;2023-04-15T04:39:45;41.30;;;23.65;;
51852;SDS011;37894;53.172;6.598;2023-04-15T04:42:10;33.58;;;21.13;;
51852;SDS011;37894;53.172;6.598;2023-04-15T04:44:36;34.45;;;20.42;;
51852;SDS011;37894;53.172;6.598;2023-04-15T04:47:03;31.25;;;19.40;;
51852;SDS011;37894;53.172;6.598;2023-04-15T04:49:30;33.90;;;20.80;;
51852;SDS011;37894;53.172;6.598;2023-04-15T04:51:56;30.30;;;17.67;;
51852;SDS011;37894;53.172;6.598;2023-04-15T04:54:22;31.90;;;18.45;;
51852;SDS011;37894;53.172;6.598;2023-04-15T04:56:48;27.45;;;16.63;;
51852;SDS011;37894;53.172;6.598;2023-04-15T04:59:14;29.42;;;17.33;;
51852;SDS011;37894;53.172;6.598;2023-04-15T05:01:40;29.10;;;16.52;;
51852;SDS011;37894;53.172;6.598;2023-04-15T05:04:06;27.25;;;15.38;;
51852;SDS011;37894;53.172;6.598;2023-04-15T05:06:32;28.77;;;15.80;;
51852;SDS011;37894;53.172;6.598;2023-04-15T05:08:58;27.17;;;14.95;;
51852;SDS011;37894;53.172;6.598;2023-04-15T05:11:23;25.40;;;14.75;;
51852;SDS011;37894;53.172;6.598;2023-04-15T05:13:49;25.73;;;15.35;;
51852;SDS011;37894;53.172;6.598;2023-04-15T05:16:15;29.92;;;14.30;;
51852;SDS011;37894;53.172;6.598;2023-04-15T05:18:41;26.70;;;15.18;;
51852;SDS011;37894;53.172;6.598;2023-04-15T05:21:07;24.65;;;14.77;;
51852;SDS011;37894;53.172;6.598;2023-04-15T05:23:33;26.27;;;15.20;;
51852;SDS011;37894;53.172;6.598;2023-04-15T05:25:58;23.85;;;13.95;;
51852;SDS011;37894;53.172;6.598;2023-04-15T05:28:24;23.55;;;14.40;;
51852;SDS011;37894;53.172;6.598;2023-04-15T05:30:51;23.70;;;13.82;;
51852;SDS011;37894;53.172;6.598;2023-04-15T05:33:17;26.80;;;14.35;;
51852;SDS011;37894;53.172;6.598;2023-04-15T05:35:43;29.17;;;15.30;;
51852;SDS011;37894;53.172;6.598;2023-04-15T05:38:08;29.17;;;15.02;;
51852;SDS011;37894;53.172;6.598;2023-04-15T05:40:34;28.50;;;16.20;;
51852;SDS011;37894;53.172;6.598;2023-04-15T05:43:01;26.33;;;15.48;;
51852;SDS011;37894;53.172;6.598;2023-04-15T05:45:27;29.13;;;16.13;;
51852;SDS011;37894;53.172;6.598;2023-04-15T05:47:52;27.73;;;14.90;;
51852;SDS011;37894;53.172;6.598;2023-04-15T05:50:19;32.08;;;15.38;;
51852;SDS011;37894;53.172;6.598;2023-04-15T05:52:46;36.65;;;17.33;;
51852;SDS011;37894;53.172;6.598;2023-04-15T05:55:11;34.50;;;17.52;;
51852;SDS011;37894;53.172;6.598;2023-04-15T05:57:38;34.92;;;18.08;;
51852;SDS011;37894;53.172;6.598;2023-04-15T06:00:04;39.30;;;17.92;;
51852;SDS011;37894;53.172;6.598;2023-04-15T06:02:31;30.73;;;16.70;;
51852;SDS011;37894;53.172;6.598;2023-04-15T06:04:56;30.10;;;16.73;;
51852;SDS011;37894;53.172;6.598;2023-04-15T06:07:22;33.55;;;16.85;;
51852;SDS011;37894;53.172;6.598;2023-04-15T06:09:48;33.63;;;16.92;;
51852;SDS011;37894;53.172;6.598;2023-04-15T06:12:14;34.65;;;16.70;;
51852;SDS011;37894;53.172;6.598;2023-04-15T06:14:41;27.55;;;15.10;;
51852;SDS011;37894;53.172;6.598;2023-04-15T06:17:07;33.42;;;16.25;;
51852;SDS011;37894;53.172;6.598;2023-04-15T06:19:33;32.47;;;16.52;;
51852;SDS011;37894;53.172;6.598;2023-04-15T06:22:01;28.05;;;14.73;;
51852;SDS011;37894;53.172;6.598;2023-04-15T06:24:27;27.17;;;15.18;;
51852;SDS011;37894;53.172;6.598;2023-04-15T06:26:53;27.83;;;14.85;;
51852;SDS011;37894;53.172;6.598;2023-04-15T06:29:18;25.58;;;13.82;;
51852;SDS011;37894;53.172;6.598;2023-04-15T06:31:48;25.33;;;13.93;;
51852;SDS011;37894;53.172;6.598;2023-04-15T06:34:13;25.50;;;13.90;;
51852;SDS011;37894;53.172;6.598;2023-04-15T06:36:39;23.80;;;12.48;;
51852;SDS011;37894;53.172;6.598;2023-04-15T06:39:05;25.00;;;12.73;;
51852;SDS011;37894;53.172;6.598;2023-04-15T06:41:31;21.38;;;12.32;;
51852;SDS011;37894;53.172;6.598;2023-04-15T06:43:57;20.55;;;12.23;;
51852;SDS011;37894;53.172;6.598;2023-04-15T06:46:22;23.98;;;11.98;;
51852;SDS011;37894;53.172;6.598;2023-04-15T06:48:48;22.85;;;11.60;;
51852;SDS011;37894;53.172;6.598;2023-04-15T06:51:14;20.38;;;11.82;;
51852;SDS011;37894;53.172;6.598;2023-04-15T06:53:40;20.35;;;12.20;;
51852;SDS011;37894;53.172;6.598;2023-04-15T06:56:08;20.63;;;11.57;;
51852;SDS011;37894;53.172;6.598;2023-04-15T06:58:33;20.30;;;11.43;;
51852;SDS011;37894;53.172;6.598;2023-04-15T07:00:59;19.55;;;11.60;;
51852;SDS011;37894;53.172;6.598;2023-04-15T07:03:25;18.45;;;11.10;;
51852;SDS011;37894;53.172;6.598;2023-04-15T07:05:51;21.65;;;10.10;;
51852;SDS011;37894;53.172;6.598;2023-04-15T07:08:18;19.63;;;10.77;;
51852;SDS011;37894;53.172;6.598;2023-04-15T07:10:44;18.42;;;9.80;;
51852;SDS011;37894;53.172;6.598;2023-04-15T07:13:11;23.48;;;10.98;;
51852;SDS011;37894;53.172;6.598;2023-04-15T07:15:37;16.17;;;9.82;;
51852;SDS011;37894;53.172;6.598;2023-04-15T07:18:03;17.15;;;9.85;;
51852;SDS011;37894;53.172;6.598;2023-04-15T07:20:28;19.20;;;9.70;;
51852;SDS011;37894;53.172;6.598;2023-04-15T07:22:54;18.00;;;9.85;;
51852;SDS011;37894;53.172;6.598;2023-04-15T07:25:20;18.80;;;11.00;;
51852;SDS011;37894;53.172;6.598;2023-04-15T07:27:46;15.70;;;9.55;;
51852;SDS011;37894;53.172;6.598;2023-04-15T07:30:12;15.80;;;9.88;;
51852;SDS011;37894;53.172;6.598;2023-04-15T07:32:38;16.48;;;9.15;;
51852;SDS011;37894;53.172;6.598;2023-04-15T07:35:04;18.17;;;9.18;;
51852;SDS011;37894;53.172;6.598;2023-04-15T07:37:30;15.48;;;8.80;;
51852;SDS011;37894;53.172;6.598;2023-04-15T07:39:56;14.85;;;8.55;;
51852;SDS011;37894;53.172;6.598;2023-04-15T07:42:22;13.93;;;8.23;;
51852;SDS011;37894;53.172;6.598;2023-04-15T07:44:47;14.23;;;8.73;;
51852;SDS011;37894;53.172;6.598;2023-04-15T07:47:13;17.60;;;8.00;;
51852;SDS011;37894;53.172;6.598;2023-04-15T07:49:40;12.40;;;8.07;;
51852;SDS011;37894;53.172;6.598;2023-04-15T07:52:07;12.02;;;7.50;;
51852;SDS011;37894;53.172;6.598;2023-04-15T07:54:32;13.13;;;7.80;;
51852;SDS011;37894;53.172;6.598;2023-04-15T07:56:58;13.68;;;6.53;;
51852;SDS011;37894;53.172;6.598;2023-04-15T07:59:24;14.02;;;6.88;;
51852;SDS011;37894;53.172;6.598;2023-04-15T08:01:51;11.02;;;6.60;;
51852;SDS011;37894;53.172;6.598;2023-04-15T08:04:17;11.65;;;6.28;;
51852;SDS011;37894;53.172;6.598;2023-04-15T08:06:43;15.23;;;6.82;;
51852;SDS011;37894;53.172;6.598;2023-04-15T08:09:08;13.77;;;7.45;;
51852;SDS011;37894;53.172;6.598;2023-04-15T08:11:35;15.20;;;6.55;;
51852;SDS011;37894;53.172;6.598;2023-04-15T08:14:01;23.67;;;7.50;;
51852;SDS011;37894;53.172;6.598;2023-04-15T08:16:27;10.68;;;6.78;;
51852;SDS011;37894;53.172;6.598;2023-04-15T08:18:54;19.02;;;6.47;;
51852;SDS011;37894;53.172;6.598;2023-04-15T08:21:21;10.40;;;6.03;;
51852;SDS011;37894;53.172;6.598;2023-04-15T08:23:47;11.55;;;5.35;;
51852;SDS011;37894;53.172;6.598;2023-04-15T08:26:15;8.88;;;5.80;;
51852;SDS011;37894;53.172;6.598;2023-04-15T08:28:42;9.82;;;6.25;;
51852;SDS011;37894;53.172;6.598;2023-04-15T08:31:08;8.23;;;5.35;;
51852;SDS011;37894;53.172;6.598;2023-04-15T08:33:35;11.07;;;5.45;;
51852;SDS011;37894;53.172;6.598;2023-04-15T08:36:00;10.27;;;5.65;;
51852;SDS011;37894;53.172;6.598;2023-04-15T08:38:27;12.52;;;5.70;;
51852;SDS011;37894;53.172;6.598;2023-04-15T08:40:53;9.10;;;5.18;;
51852;SDS011;37894;53.172;6.598;2023-04-15T08:43:23;9.63;;;5.03;;
51852;SDS011;37894;53.172;6.598;2023-04-15T08:45:52;10.25;;;4.70;;
51852;SDS011;37894;53.172;6.598;2023-04-15T08:48:20;9.85;;;4.28;;
51852;SDS011;37894;53.172;6.598;2023-04-15T08:50:48;9.70;;;3.85;;
51852;SDS011;37894;53.172;6.598;2023-04-15T08:53:15;7.85;;;4.47;;
51852;SDS011;37894;53.172;6.598;2023-04-15T08:55:43;9.30;;;3.70;;
51852;SDS011;37894;53.172;6.598;2023-04-15T08:58:13;7.50;;;3.72;;
51852;SDS011;37894;53.172;6.598;2023-04-15T09:00:39;10.75;;;3.22;;
51852;SDS011;37894;53.172;6.598;2023-04-15T09:03:06;5.70;;;3.13;;
51852;SDS011;37894;53.172;6.598;2023-04-15T09:05:33;5.05;;;2.83;;
51852;SDS011;37894;53.172;6.598;2023-04-15T09:08:00;5.95;;;2.90;;
51852;SDS011;37894;53.172;6.598;2023-04-15T09:10:26;6.88;;;2.92;;
51852;SDS011;37894;53.172;6.598;2023-04-15T09:12:53;5.30;;;2.55;;
51852;SDS011;37894;53.172;6.598;2023-04-15T09:15:19;8.90;;;3.00;;
51852;SDS011;37894;53.172;6.598;2023-04-15T09:17:45;6.13;;;2.72;;
51852;SDS011;37894;53.172;6.598;2023-04-15T09:22:39;5.53;;;2.38;;
51852;SDS011;37894;53.172;6.598;2023-04-15T09:27:51;4.43;;;2.50;;
51852;SDS011;37894;53.172;6.598;2023-04-15T09:30:21;7.25;;;2.83;;
51852;SDS011;37894;53.172;6.598;2023-04-15T09:32:51;3.72;;;2.10;;
51852;SDS011;37894;53.172;6.598;2023-04-15T09:35:22;3.70;;;2.10;;
51852;SDS011;37894;53.172;6.598;2023-04-15T09:37:48;4.03;;;1.80;;
51852;SDS011;37894;53.172;6.598;2023-04-15T09:40:17;4.25;;;1.88;;
51852;SDS011;37894;53.172;6.598;2023-04-15T09:43:02;4.60;;;2.53;;
51852;SDS011;37894;53.172;6.598;2023-04-15T09:45:29;3.85;;;1.98;;
51852;SDS011;37894;53.172;6.598;2023-04-15T09:48:14;4.63;;;1.92;;
51852;SDS011;37894;53.172;6.598;2023-04-15T09:50:48;4.65;;;2.10;;
51852;SDS011;37894;53.172;6.598;2023-04-15T09:53:18;7.40;;;2.03;;
51852;SDS011;37894;53.172;6.598;2023-04-15T09:55:48;6.18;;;2.00;;
51852;SDS011;37894;53.172;6.598;2023-04-15T09:58:25;5.32;;;2.00;;
51852;SDS011;37894;53.172;6.598;2023-04-15T10:00:52;4.25;;;2.15;;
51852;SDS011;37894;53.172;6.598;2023-04-15T10:03:30;4.40;;;1.90;;
51852;SDS011;37894;53.172;6.598;2023-04-15T10:05:58;7.32;;;2.35;;
51852;SDS011;37894;53.172;6.598;2023-04-15T10:08:28;4.43;;;1.80;;
51852;SDS011;37894;53.172;6.598;2023-04-15T10:10:55;4.75;;;1.75;;
51852;SDS011;37894;53.172;6.598;2023-04-15T10:13:26;4.15;;;1.77;;
51852;SDS011;37894;53.172;6.598;2023-04-15T10:18:24;3.95;;;1.65;;
51852;SDS011;37894;53.172;6.598;2023-04-15T10:20:51;4.72;;;1.75;;
51852;SDS011;37894;53.172;6.598;2023-04-15T10:23:18;3.65;;;1.85;;
51852;SDS011;37894;53.172;6.598;2023-04-15T10:25:45;4.35;;;1.70;;
51852;SDS011;37894;53.172;6.598;2023-04-15T10:28:13;5.50;;;1.92;;
51852;SDS011;37894;53.172;6.598;2023-04-15T10:30:40;5.88;;;1.95;;
51852;SDS011;37894;53.172;6.598;2023-04-15T10:33:07;5.85;;;2.28;;
51852;SDS011;37894;53.172;6.598;2023-04-15T10:35:35;9.40;;;2.03;;
51852;SDS011;37894;53.172;6.598;2023-04-15T10:38:01;4.95;;;2.30;;
51852;SDS011;37894;53.172;6.598;2023-04-15T10:40:47;5.53;;;2.15;;
51852;SDS011;37894;53.172;6.598;2023-04-15T10:43:23;3.58;;;1.98;;
51852;SDS011;37894;53.172;6.598;2023-04-15T10:45:51;8.43;;;2.70;;
51852;SDS011;37894;53.172;6.598;2023-04-15T10:48:18;6.75;;;2.28;;
51852;SDS011;37894;53.172;6.598;2023-04-15T10:50:54;7.80;;;2.45;;
51852;SDS011;37894;53.172;6.598;2023-04-15T10:53:27;5.38;;;2.03;;
51852;SDS011;37894;53.172;6.598;2023-04-15T10:55:54;5.90;;;2.40;;
51852;SDS011;37894;53.172;6.598;2023-04-15T10:58:22;8.25;;;2.28;;
51852;SDS011;37894;53.172;6.598;2023-04-15T11:00:49;7.20;;;2.65;;
51852;SDS011;37894;53.172;6.598;2023-04-15T11:06:05;9.35;;;2.85;;
51852;SDS011;37894;53.172;6.598;2023-04-15T11:14:28;7.28;;;2.53;;
51852;SDS011;37894;53.172;6.598;2023-04-15T11:16:54;8.18;;;2.50;;
51852;SDS011;37894;53.172;6.598;2023-04-15T11:19:20;7.10;;;2.40;;
51852;SDS011;37894;53.172;6.598;2023-04-15T11:21:46;9.20;;;2.60;;
51852;SDS011;37894;53.172;6.598;2023-04-15T11:24:22;6.95;;;2.72;;
51852;SDS011;37894;53.172;6.598;2023-04-15T11:26:55;8.00;;;2.95;;
51852;SDS011;37894;53.172;6.598;2023-04-15T11:29:27;11.10;;;2.28;;
51852;SDS011;37894;53.172;6.598;2023-04-15T11:32:08;6.38;;;1.98;;
51852;SDS011;37894;53.172;6.598;2023-04-15T11:34:34;5.03;;;1.65;;
51852;SDS011;37894;53.172;6.598;2023-04-15T11:37:04;8.63;;;2.60;;
51852;SDS011;37894;53.172;6.598;2023-04-15T11:39:30;5.88;;;1.90;;
51852;SDS011;37894;53.172;6.598;2023-04-15T11:41:56;10.25;;;3.03;;
51852;SDS011;37894;53.172;6.598;2023-04-15T11:44:22;6.00;;;2.08;;
51852;SDS011;37894;53.172;6.598;2023-04-15T11:46:48;8.50;;;2.20;;
51852;SDS011;37894;53.172;6.598;2023-04-15T11:49:27;9.13;;;2.17;;
51852;SDS011;37894;53.172;6.598;2023-04-15T11:51:54;8.43;;;2.70;;
51852;SDS011;37894;53.172;6.598;2023-04-15T11:54:20;6.93;;;1.92;;
51852;SDS011;37894;53.172;6.598;2023-04-15T11:56:49;9.68;;;1.80;;
51852;SDS011;37894;53.172;6.598;2023-04-15T11:59:16;7.18;;;1.90;;
51852;SDS011;37894;53.172;6.598;2023-04-15T12:01:42;7.55;;;2.10;;
51852;SDS011;37894;53.172;6.598;2023-04-15T12:04:14;11.57;;;2.60;;
51852;SDS011;37894;53.172;6.598;2023-04-15T12:06:43;12.32;;;2.70;;
51852;SDS011;37894;53.172;6.598;2023-04-15T12:09:13;9.38;;;2.10;;
51852;SDS011;37894;53.172;6.598;2023-04-15T12:11:47;7.28;;;2.10;;
51852;SDS011;37894;53.172;6.598;2023-04-15T12:16:49;7.93;;;1.67;;
51852;SDS011;37894;53.172;6.598;2023-04-15T12:19:27;9.82;;;2.22;;
51852;SDS011;37894;53.172;6.598;2023-04-15T12:22:13;6.38;;;2.22;;
51852;SDS011;37894;53.172;6.598;2023-04-15T12:24:40;7.15;;;2.10;;
51852;SDS011;37894;53.172;6.598;2023-04-15T12:27:13;8.60;;;2.30;;
51852;SDS011;37894;53.172;6.598;2023-04-15T12:29:40;6.32;;;2.15;;
51852;SDS011;37894;53.172;6.598;2023-04-15T12:32:10;6.97;;;1.83;;
51852;SDS011;37894;53.172;6.598;2023-04-15T12:37:05;6.85;;;2.10;;
51852;SDS011;37894;53.172;6.598;2023-04-15T12:39:36;8.50;;;2.10;;
51852;SDS011;37894;53.172;6.598;2023-04-15T12:42:03;4.88;;;1.80;;
51852;SDS011;37894;53.172;6.598;2023-04-15T12:44:30;6.00;;;1.52;;
51852;SDS011;37894;53.172;6.598;2023-04-15T12:46:57;5.95;;;1.70;;
51852;SDS011;37894;53.172;6.598;2023-04-15T12:49:24;5.47;;;1.63;;
51852;SDS011;37894;53.172;6.598;2023-04-15T12:51:54;5.43;;;1.40;;
51852;SDS011;37894;53.172;6.598;2023-04-15T12:54:21;5.72;;;1.83;;
51852;SDS011;37894;53.172;6.598;2023-04-15T12:56:48;8.30;;;1.80;;
51852;SDS011;37894;53.172;6.598;2023-04-15T12:59:15;8.32;;;1.80;;
51852;SDS011;37894;53.172;6.598;2023-04-15T13:01:42;6.95;;;1.75;;
51852;SDS011;37894;53.172;6.598;2023-04-15T13:04:09;9.88;;;1.90;;
51852;SDS011;37894;53.172;6.598;2023-04-15T13:06:35;6.85;;;2.40;;
51852;SDS011;37894;53.172;6.598;2023-04-15T13:09:01;7.47;;;1.55;;
51852;SDS011;37894;53.172;6.598;2023-04-15T13:11:27;10.10;;;1.65;;
51852;SDS011;37894;53.172;6.598;2023-04-15T13:13:58;7.90;;;2.00;;
51852;SDS011;37894;53.172;6.598;2023-04-15T13:16:25;8.52;;;1.80;;
51852;SDS011;37894;53.172;6.598;2023-04-15T13:18:51;11.70;;;2.53;;
51852;SDS011;37894;53.172;6.598;2023-04-15T13:21:17;6.95;;;2.13;;
51852;SDS011;37894;53.172;6.598;2023-04-15T13:23:43;5.38;;;1.73;;
51852;SDS011;37894;53.172;6.598;2023-04-15T13:26:09;10.13;;;2.50;;
51852;SDS011;37894;53.172;6.598;2023-04-15T13:28:35;9.45;;;2.05;;
51852;SDS011;37894;53.172;6.598;2023-04-15T13:31:01;10.02;;;2.53;;
51852;SDS011;37894;53.172;6.598;2023-04-15T13:33:27;8.05;;;1.85;;
51852;SDS011;37894;53.172;6.598;2023-04-15T13:35:52;7.20;;;2.00;;
51852;SDS011;37894;53.172;6.598;2023-04-15T13:38:19;9.43;;;2.00;;
51852;SDS011;37894;53.172;6.598;2023-04-15T13:40:44;7.57;;;1.95;;
51852;SDS011;37894;53.172;6.598;2023-04-15T13:43:10;9.40;;;2.20;;
51852;SDS011;37894;53.172;6.598;2023-04-15T13:45:36;7.25;;;2.10;;
51852;SDS011;37894;53.172;6.598;2023-04-15T13:48:03;7.93;;;2.38;;
51852;SDS011;37894;53.172;6.598;2023-04-15T13:50:28;8.07;;;2.00;;
51852;SDS011;37894;53.172;6.598;2023-04-15T13:52:54;4.88;;;1.67;;
51852;SDS011;37894;53.172;6.598;2023-04-15T13:55:20;9.52;;;2.08;;
51852;SDS011;37894;53.172;6.598;2023-04-15T13:57:46;10.50;;;1.83;;
51852;SDS011;37894;53.172;6.598;2023-04-15T14:00:12;5.53;;;2.00;;
51852;SDS011;37894;53.172;6.598;2023-04-15T14:02:38;10.40;;;1.95;;
51852;SDS011;37894;53.172;6.598;2023-04-15T14:05:05;10.55;;;2.25;;
51852;SDS011;37894;53.172;6.598;2023-04-15T14:07:31;10.93;;;2.80;;
51852;SDS011;37894;53.172;6.598;2023-04-15T14:09:57;9.55;;;1.95;;
51852;SDS011;37894;53.172;6.598;2023-04-15T14:12:22;5.75;;;2.05;;
51852;SDS011;37894;53.172;6.598;2023-04-15T14:14:48;9.30;;;2.30;;
51852;SDS011;37894;53.172;6.598;2023-04-15T14:17:14;10.13;;;2.17;;
51852;SDS011;37894;53.172;6.598;2023-04-15T14:19:40;7.03;;;2.45;;
51852;SDS011;37894;53.172;6.598;2023-04-15T14:22:05;8.63;;;2.25;;
51852;SDS011;37894;53.172;6.598;2023-04-15T14:24:31;6.88;;;2.40;;
51852;SDS011;37894;53.172;6.598;2023-04-15T14:26:57;8.43;;;2.35;;
51852;SDS011;37894;53.172;6.598;2023-04-15T14:29:23;8.50;;;2.30;;
51852;SDS011;37894;53.172;6.598;2023-04-15T14:31:49;12.55;;;2.88;;
51852;SDS011;37894;53.172;6.598;2023-04-15T14:34:15;11.30;;;2.90;;
51852;SDS011;37894;53.172;6.598;2023-04-15T14:36:41;12.90;;;3.05;;
51852;SDS011;37894;53.172;6.598;2023-04-15T14:39:07;10.98;;;2.60;;
51852;SDS011;37894;53.172;6.598;2023-04-15T14:41:33;15.32;;;2.60;;
51852;SDS011;37894;53.172;6.598;2023-04-15T14:43:59;17.55;;;3.60;;
51852;SDS011;37894;53.172;6.598;2023-04-15T14:46:25;9.52;;;2.95;;
51852;SDS011;37894;53.172;6.598;2023-04-15T14:48:51;12.02;;;2.80;;
51852;SDS011;37894;53.172;6.598;2023-04-15T14:51:17;14.85;;;3.10;;
51852;SDS011;37894;53.172;6.598;2023-04-15T14:53:43;11.55;;;3.33;;
51852;SDS011;37894;53.172;6.598;2023-04-15T14:56:09;11.50;;;2.97;;